Pereiaslavskyi — UUBF2 — position and weather

sailwx.info

Track history (hours):
 
Tides and Currents Weather Stations Pressure Air Temp Water Temp Dewpoint Dewpoint Depression Visibility Wind Speed Wind Dir Waves Ship Positions

Pereiaslavskyi

Last reported at 2017-Dec-11 17:01 UTC. Time now 2017-Dec-13 05:25 UTC.
Position N 46°57' E 031°59'.

Length 28 m; draft 1.7 m.

Type: Tug. MMSI: 272743000.

Date/timePositionNaut miles runAvg speedWind from/ knotsBaromVisibWave heightAir tempDewpointWater temp
2017-Dec-11 17:01N 46°57' E 031°59'0 0.0
2017-Dec-11 16:31N 46°57' E 031°59'0 0.7
2017-Dec-11 16:01N 46°56' E 031°59'0 0.0
2017-Dec-11 15:30N 46°56' E 031°59'0 0.6
2017-Dec-11 15:00N 46°57' E 031°59'0 0.0
2017-Dec-11 14:30N 46°57' E 031°59'0 0.0
2017-Dec-11 14:00N 46°57' E 031°59'0 0.0
2017-Dec-11 13:31N 46°57' E 031°59'0 0.0
2017-Dec-11 13:00N 46°57' E 031°59'0 0.4
2017-Dec-11 12:31N 46°56' E 031°59'0 0.3
2017-Dec-11 12:00N 46°56' E 031°59'0 0.0
2017-Dec-11 11:30N 46°56' E 031°59'0 0.7
2017-Dec-11 11:00N 46°57' E 031°59'0 0.1
2017-Dec-11 10:31N 46°57' E 031°59'0 0.0
2017-Dec-11 10:01N 46°57' E 031°59'0 0.0
2017-Dec-11 09:31N 46°57' E 031°59'0 0.0
2017-Dec-11 09:00N 46°57' E 031°59'0 0.0
2017-Dec-11 08:31N 46°57' E 031°59'0 0.1
2017-Dec-11 08:00N 46°57' E 031°59'0 0.1
2017-Dec-11 07:30N 46°57' E 031°59'0 0.0
2017-Dec-11 07:00N 46°57' E 031°59'0 0.0
2017-Dec-11 06:30N 46°57' E 031°59'0 0.0
2017-Dec-11 06:00N 46°57' E 031°59'0 0.1
2017-Dec-11 05:30N 46°56' E 031°59'1 2.0
2017-Dec-11 05:00N 46°56' E 032°00'1 2.7
2017-Dec-11 04:31N 46°55' E 032°01'2 3.4
2017-Dec-11 04:00N 46°53' E 031°60'2 3.5
2017-Dec-11 03:31N 46°52' E 031°58'2 3.7
2017-Dec-11 03:01N 46°51' E 031°56'2 3.5
2017-Dec-11 02:30N 46°49' E 031°55'2 3.4
2017-Dec-11 02:00N 46°48' E 031°53'2 3.5
2017-Dec-11 01:31N 46°46' E 031°53'2 3.3
2017-Dec-11 01:01N 46°45' E 031°54'2 3.4
2017-Dec-11 00:30N 46°44' E 031°56'2 3.6
2017-Dec-11 00:00N 46°42' E 031°56'2 3.1
2017-Dec-10 23:30N 46°40' E 031°55'0 0.1
2017-Dec-10 23:00N 46°40' E 031°55'0 0.0
2017-Dec-10 22:31N 46°40' E 031°55'0 0.0
2017-Dec-10 22:01N 46°40' E 031°56'0 0.0
2017-Dec-10 21:31N 46°40' E 031°56'0 0.0
2017-Dec-10 21:00N 46°40' E 031°56'0 0.0
2017-Dec-10 20:31N 46°40' E 031°56'0 0.0
2017-Dec-10 20:01N 46°40' E 031°56'0 0.0
2017-Dec-10 19:30N 46°40' E 031°56'0 0.0
2017-Dec-10 19:01N 46°40' E 031°56'0 0.0
2017-Dec-10 18:30N 46°40' E 031°56'0 0.0
2017-Dec-10 18:00N 46°40' E 031°56'0 0.0
2017-Dec-10 17:30N 46°40' E 031°56'0 0.0
2017-Dec-10 17:00N 46°40' E 031°56'0 0.0
2017-Dec-10 16:30N 46°40' E 031°55'1 1.2
2017-Dec-10 16:01N 46°40' E 031°56'1 2.8
2017-Dec-10 15:31N 46°38' E 031°57'1 2.7
2017-Dec-10 15:01N 46°37' E 031°58'1 2.3
2017-Dec-10 14:30N 46°36' E 031°59'1 2.1
2017-Dec-10 14:00N 46°36' E 031°60'1 2.6
2017-Dec-10 13:30N 46°35' E 032°01'1 2.6
2017-Dec-10 13:00N 46°34' E 032°02'1 2.8
2017-Dec-10 12:30N 46°33' E 032°04'2 2.8
2017-Dec-10 11:50N 46°32' E 032°06'1 3.3
2017-Dec-10 11:28N 46°32' E 032°08'  
2017-Dec-07 12:35N 47°38' E 035°06'0 3.8
2017-Dec-07 12:29N 47°39' E 035°06'2 3.9
2017-Dec-07 11:55N 47°41' E 035°08'2 3.9
2017-Dec-07 11:30N 47°42' E 035°08'2 3.9
2017-Dec-07 11:00N 47°44' E 035°10'2 4.1
2017-Dec-07 10:30N 47°46' E 035°09'2 3.8
2017-Dec-07 10:00N 47°48' E 035°10'2 3.8
2017-Dec-07 09:30N 47°49' E 035°08'2 4.0
2017-Dec-07 09:00N 47°50' E 035°05'1 2.8
2017-Dec-07 08:30N 47°52' E 035°05'0 0.2
2017-Dec-07 08:00N 47°52' E 035°06'0 0.3
2017-Dec-07 07:30N 47°52' E 035°06'1 1.5
2017-Dec-07 07:00N 47°53' E 035°06'0 0.3
2017-Dec-07 06:30N 47°53' E 035°06'0 0.0
2017-Dec-07 06:00N 47°53' E 035°06'0 0.0
2017-Dec-07 05:30N 47°53' E 035°06'0 0.0
2017-Dec-07 05:01N 47°53' E 035°06'0 0.0
2017-Dec-07 04:31N 47°53' E 035°06'0 0.0
2017-Dec-07 04:00N 47°53' E 035°06'0 0.0
2017-Dec-07 03:30N 47°53' E 035°06'0 0.1
2017-Dec-07 03:00N 47°53' E 035°06'0 0.0
2017-Dec-07 02:31N 47°53' E 035°06'0 0.0
2017-Dec-07 02:00N 47°53' E 035°06'0 0.1
2017-Dec-07 01:30N 47°53' E 035°06'0 0.5
2017-Dec-07 01:00N 47°53' E 035°06'1 2.9
2017-Dec-07 00:30N 47°54' E 035°07'2 3.3
2017-Dec-07 00:01N 47°56' E 035°07'2 3.3
2017-Dec-06 23:30N 47°58' E 035°07'2 3.3
2017-Dec-06 23:01N 47°59' E 035°08'2 3.4
2017-Dec-06 22:28N 48°01' E 035°08'  
2017-Dec-02 10:05N 48°04' E 035°06'0 4.6
2017-Dec-02 10:00N 48°03' E 035°06'2 4.6
2017-Dec-02 09:30N 48°01' E 035°08'3 4.7
2017-Dec-02 08:58N 47°59' E 035°07'2 4.5
2017-Dec-02 08:30N 47°57' E 035°07'2 4.6
2017-Dec-02 08:00N 47°55' E 035°07'2 4.6
2017-Dec-02 07:30N 47°52' E 035°06'1 1.3
2017-Dec-02 07:01N 47°52' E 035°05'0 0.3
2017-Dec-02 06:31N 47°52' E 035°05'0 0.2
2017-Dec-02 06:00N 47°52' E 035°05'0 0.7
2017-Dec-02 05:30N 47°51' E 035°05'2 4.0
2017-Dec-02 05:00N 47°50' E 035°07'2 4.3
2017-Dec-02 04:31N 47°49' E 035°09'1 1.1
2017-Dec-02 04:00N 47°48' E 035°10'0 0.0
2017-Dec-02 03:30N 47°48' E 035°10'0 0.0
2017-Dec-02 03:00N 47°48' E 035°10'0 0.0
2017-Dec-02 02:30N 47°48' E 035°10'0 0.0
2017-Dec-02 02:00N 47°48' E 035°10'0 0.0
2017-Dec-02 01:30N 47°48' E 035°10'0 0.0
2017-Dec-02 01:00N 47°48' E 035°10'0 0.0
2017-Dec-02 00:30N 47°48' E 035°10'0 0.0
2017-Dec-02 00:00N 47°48' E 035°10'0 0.0
2017-Dec-01 23:30N 47°48' E 035°10'0 0.0
2017-Dec-01 23:00N 47°48' E 035°10'0 0.0
2017-Dec-01 22:30N 47°48' E 035°10'0 0.0
2017-Dec-01 22:00N 47°48' E 035°10'0 0.0
2017-Dec-01 21:30N 47°48' E 035°10'0 0.0
2017-Dec-01 21:01N 47°48' E 035°10'0 0.0
2017-Dec-01 20:30N 47°48' E 035°10'0 0.0
2017-Dec-01 20:01N 47°48' E 035°10'0 0.1
2017-Dec-01 19:30N 47°48' E 035°10'2 3.1
2017-Dec-01 19:00N 47°47' E 035°09'2 4.0
2017-Dec-01 18:31N 47°45' E 035°10'2 3.7
2017-Dec-01 18:00N 47°43' E 035°09'2 3.7
2017-Dec-01 17:30N 47°41' E 035°08'  
Track history (hours):
 
Tides and Currents Weather Stations Pressure Air Temp Water Temp Dewpoint Dewpoint Depression Visibility Wind Speed Wind Dir Waves Ship Positions

Pereiaslavskyi

Last reported at 2017-Dec-11 17:01 UTC. Time now 2017-Dec-13 05:25 UTC.
Position N 46°57' E 031°59'.

Length 28 m; draft 1.7 m.

Type: Tug. MMSI: 272743000.

Date/timePositionNaut miles runAvg speedWind from/ knotsBaromVisibWave heightAir tempDewpointWater temp
2017-Dec-11 17:01N 46°57' E 031°59'0 0.0
2017-Dec-11 16:31N 46°57' E 031°59'0 0.7
2017-Dec-11 16:01N 46°56' E 031°59'0 0.0
2017-Dec-11 15:30N 46°56' E 031°59'0 0.6
2017-Dec-11 15:00N 46°57' E 031°59'0 0.0
2017-Dec-11 14:30N 46°57' E 031°59'0 0.0
2017-Dec-11 14:00N 46°57' E 031°59'0 0.0
2017-Dec-11 13:31N 46°57' E 031°59'0 0.0
2017-Dec-11 13:00N 46°57' E 031°59'0 0.4
2017-Dec-11 12:31N 46°56' E 031°59'0 0.3
2017-Dec-11 12:00N 46°56' E 031°59'0 0.0
2017-Dec-11 11:30N 46°56' E 031°59'0 0.7
2017-Dec-11 11:00N 46°57' E 031°59'0 0.1
2017-Dec-11 10:31N 46°57' E 031°59'0 0.0
2017-Dec-11 10:01N 46°57' E 031°59'0 0.0
2017-Dec-11 09:31N 46°57' E 031°59'0 0.0
2017-Dec-11 09:00N 46°57' E 031°59'0 0.0
2017-Dec-11 08:31N 46°57' E 031°59'0 0.1
2017-Dec-11 08:00N 46°57' E 031°59'0 0.1
2017-Dec-11 07:30N 46°57' E 031°59'0 0.0
2017-Dec-11 07:00N 46°57' E 031°59'0 0.0
2017-Dec-11 06:30N 46°57' E 031°59'0 0.0
2017-Dec-11 06:00N 46°57' E 031°59'0 0.1
2017-Dec-11 05:30N 46°56' E 031°59'1 2.0
2017-Dec-11 05:00N 46°56' E 032°00'1 2.7
2017-Dec-11 04:31N 46°55' E 032°01'2 3.4
2017-Dec-11 04:00N 46°53' E 031°60'2 3.5
2017-Dec-11 03:31N 46°52' E 031°58'2 3.7
2017-Dec-11 03:01N 46°51' E 031°56'2 3.5
2017-Dec-11 02:30N 46°49' E 031°55'2 3.4
2017-Dec-11 02:00N 46°48' E 031°53'2 3.5
2017-Dec-11 01:31N 46°46' E 031°53'2 3.3
2017-Dec-11 01:01N 46°45' E 031°54'2 3.4
2017-Dec-11 00:30N 46°44' E 031°56'2 3.6
2017-Dec-11 00:00N 46°42' E 031°56'2 3.1
2017-Dec-10 23:30N 46°40' E 031°55'0 0.1
2017-Dec-10 23:00N 46°40' E 031°55'0 0.0
2017-Dec-10 22:31N 46°40' E 031°55'0 0.0
2017-Dec-10 22:01N 46°40' E 031°56'0 0.0
2017-Dec-10 21:31N 46°40' E 031°56'0 0.0
2017-Dec-10 21:00N 46°40' E 031°56'0 0.0
2017-Dec-10 20:31N 46°40' E 031°56'0 0.0
2017-Dec-10 20:01N 46°40' E 031°56'0 0.0
2017-Dec-10 19:30N 46°40' E 031°56'0 0.0
2017-Dec-10 19:01N 46°40' E 031°56'0 0.0
2017-Dec-10 18:30N 46°40' E 031°56'0 0.0
2017-Dec-10 18:00N 46°40' E 031°56'0 0.0
2017-Dec-10 17:30N 46°40' E 031°56'0 0.0
2017-Dec-10 17:00N 46°40' E 031°56'0 0.0
2017-Dec-10 16:30N 46°40' E 031°55'1 1.2
2017-Dec-10 16:01N 46°40' E 031°56'1 2.8
2017-Dec-10 15:31N 46°38' E 031°57'1 2.7
2017-Dec-10 15:01N 46°37' E 031°58'1 2.3
2017-Dec-10 14:30N 46°36' E 031°59'1 2.1
2017-Dec-10 14:00N 46°36' E 031°60'1 2.6
2017-Dec-10 13:30N 46°35' E 032°01'1 2.6
2017-Dec-10 13:00N 46°34' E 032°02'1 2.8
2017-Dec-10 12:30N 46°33' E 032°04'2 2.8
2017-Dec-10 11:50N 46°32' E 032°06'1 3.3
2017-Dec-10 11:28N 46°32' E 032°08'  
2017-Dec-07 12:35N 47°38' E 035°06'0 3.8
2017-Dec-07 12:29N 47°39' E 035°06'2 3.9
2017-Dec-07 11:55N 47°41' E 035°08'2 3.9
2017-Dec-07 11:30N 47°42' E 035°08'2 3.9
2017-Dec-07 11:00N 47°44' E 035°10'2 4.1
2017-Dec-07 10:30N 47°46' E 035°09'2 3.8
2017-Dec-07 10:00N 47°48' E 035°10'2 3.8
2017-Dec-07 09:30N 47°49' E 035°08'2 4.0
2017-Dec-07 09:00N 47°50' E 035°05'1 2.8
2017-Dec-07 08:30N 47°52' E 035°05'0 0.2
2017-Dec-07 08:00N 47°52' E 035°06'0 0.3
2017-Dec-07 07:30N 47°52' E 035°06'1 1.5
2017-Dec-07 07:00N 47°53' E 035°06'0 0.3
2017-Dec-07 06:30N 47°53' E 035°06'0 0.0
2017-Dec-07 06:00N 47°53' E 035°06'0 0.0
2017-Dec-07 05:30N 47°53' E 035°06'0 0.0
2017-Dec-07 05:01N 47°53' E 035°06'0 0.0
2017-Dec-07 04:31N 47°53' E 035°06'0 0.0
2017-Dec-07 04:00N 47°53' E 035°06'0 0.0
2017-Dec-07 03:30N 47°53' E 035°06'0 0.1
2017-Dec-07 03:00N 47°53' E 035°06'0 0.0
2017-Dec-07 02:31N 47°53' E 035°06'0 0.0
2017-Dec-07 02:00N 47°53' E 035°06'0 0.1
2017-Dec-07 01:30N 47°53' E 035°06'0 0.5
2017-Dec-07 01:00N 47°53' E 035°06'1 2.9
2017-Dec-07 00:30N 47°54' E 035°07'2 3.3
2017-Dec-07 00:01N 47°56' E 035°07'2 3.3
2017-Dec-06 23:30N 47°58' E 035°07'2 3.3
2017-Dec-06 23:01N 47°59' E 035°08'2 3.4
2017-Dec-06 22:28N 48°01' E 035°08'  
2017-Dec-02 10:05N 48°04' E 035°06'0 4.6
2017-Dec-02 10:00N 48°03' E 035°06'2 4.6
2017-Dec-02 09:30N 48°01' E 035°08'3 4.7
2017-Dec-02 08:58N 47°59' E 035°07'2 4.5
2017-Dec-02 08:30N 47°57' E 035°07'2 4.6
2017-Dec-02 08:00N 47°55' E 035°07'2 4.6
2017-Dec-02 07:30N 47°52' E 035°06'1 1.3
2017-Dec-02 07:01N 47°52' E 035°05'0 0.3
2017-Dec-02 06:31N 47°52' E 035°05'0 0.2
2017-Dec-02 06:00N 47°52' E 035°05'0 0.7
2017-Dec-02 05:30N 47°51' E 035°05'2 4.0
2017-Dec-02 05:00N 47°50' E 035°07'2 4.3
2017-Dec-02 04:31N 47°49' E 035°09'1 1.1
2017-Dec-02 04:00N 47°48' E 035°10'0 0.0
2017-Dec-02 03:30N 47°48' E 035°10'0 0.0
2017-Dec-02 03:00N 47°48' E 035°10'0 0.0
2017-Dec-02 02:30N 47°48' E 035°10'0 0.0
2017-Dec-02 02:00N 47°48' E 035°10'0 0.0
2017-Dec-02 01:30N 47°48' E 035°10'0 0.0
2017-Dec-02 01:00N 47°48' E 035°10'0 0.0
2017-Dec-02 00:30N 47°48' E 035°10'0 0.0
2017-Dec-02 00:00N 47°48' E 035°10'0 0.0
2017-Dec-01 23:30N 47°48' E 035°10'0 0.0
2017-Dec-01 23:00N 47°48' E 035°10'0 0.0
2017-Dec-01 22:30N 47°48' E 035°10'0 0.0
2017-Dec-01 22:00N 47°48' E 035°10'0 0.0
2017-Dec-01 21:30N 47°48' E 035°10'0 0.0
2017-Dec-01 21:01N 47°48' E 035°10'0 0.0
2017-Dec-01 20:30N 47°48' E 035°10'0 0.0
2017-Dec-01 20:01N 47°48' E 035°10'0 0.1
2017-Dec-01 19:30N 47°48' E 035°10'2 3.1
2017-Dec-01 19:00N 47°47' E 035°09'2 4.0
2017-Dec-01 18:31N 47°45' E 035°10'2 3.7
2017-Dec-01 18:00N 47°43' E 035°09'2 3.7
2017-Dec-01 17:30N 47°41' E 035°08'  

Dump ship's entire track history